createdAt,value
2022-10-26T00:02:00.415Z,5.53
2022-10-26T00:04:27.110Z,5.13
2022-10-26T00:06:53.687Z,5.53
2022-10-26T00:09:20.335Z,5.43
2022-10-26T00:11:46.914Z,5.20
2022-10-26T00:14:13.458Z,4.63
2022-10-26T00:16:40.033Z,5.20
2022-10-26T00:19:06.678Z,5.00
2022-10-26T00:21:33.229Z,4.50
2022-10-26T00:24:00.264Z,4.83
2022-10-26T00:26:27.893Z,4.63
2022-10-26T00:28:55.199Z,5.00
2022-10-26T00:31:22.127Z,4.40
2022-10-26T00:33:52.512Z,4.60
2022-10-26T00:36:19.138Z,4.40
2022-10-26T00:38:50.110Z,4.37
2022-10-26T00:41:21.388Z,4.30
2022-10-26T00:43:48.488Z,4.37
2022-10-26T00:46:32.775Z,4.07
2022-10-26T00:49:02.384Z,4.93
2022-10-26T00:51:55.438Z,5.13
2022-10-26T00:54:22.067Z,5.33
2022-10-26T00:56:50.972Z,5.93
2022-10-26T00:59:18.133Z,5.53
2022-10-26T01:01:47.383Z,5.50
2022-10-26T01:04:14.862Z,6.03
2022-10-26T01:06:42.377Z,6.27
2022-10-26T01:09:10.203Z,5.47
2022-10-26T01:11:36.806Z,5.13
2022-10-26T01:14:05.656Z,4.77
2022-10-26T01:16:44.452Z,4.37
2022-10-26T01:19:29.407Z,4.00
2022-10-26T01:22:22.403Z,5.17
2022-10-26T01:24:55.092Z,4.17
2022-10-26T01:27:26.993Z,4.77
2022-10-26T01:30:14.979Z,3.87
2022-10-26T01:33:03.349Z,3.90
2022-10-26T01:35:47.873Z,4.33
2022-10-26T01:38:32.939Z,4.13
2022-10-26T01:41:13.157Z,3.93
2022-10-26T01:43:46.947Z,4.43
2022-10-26T01:46:14.520Z,4.33
2022-10-26T01:48:41.369Z,4.20
2022-10-26T01:51:09.714Z,5.20
2022-10-26T01:53:36.463Z,4.70
2022-10-26T01:56:03.222Z,5.20
2022-10-26T01:59:07.858Z,4.67
2022-10-26T02:01:50.895Z,5.33
2022-10-26T02:04:48.587Z,5.00
2022-10-26T02:07:35.468Z,4.77
2022-10-26T02:10:25.426Z,4.83
2022-10-26T02:13:01.097Z,5.27
2022-10-26T02:15:36.346Z,3.90
2022-10-26T02:18:15.040Z,4.53
2022-10-26T02:20:45.082Z,4.37
2022-10-26T02:23:12.636Z,4.30
2022-10-26T02:25:44.242Z,4.37
2022-10-26T02:28:14.448Z,4.60
2022-10-26T02:30:42.140Z,4.43
2022-10-26T02:33:10.892Z,4.30
2022-10-26T02:35:38.564Z,4.60
2022-10-26T02:38:08.663Z,4.63
2022-10-26T02:40:36.060Z,4.80
2022-10-26T02:43:06.476Z,5.10
2022-10-26T02:45:46.258Z,4.50
2022-10-26T02:48:12.883Z,4.77
2022-10-26T02:50:48.440Z,4.63
2022-10-26T02:53:26.230Z,4.57
2022-10-26T02:55:52.854Z,5.23
2022-10-26T02:58:25.779Z,5.40
2022-10-26T03:00:53.033Z,6.03
2022-10-26T03:03:19.763Z,5.50
2022-10-26T03:05:46.463Z,6.00
2022-10-26T03:08:13.035Z,6.37
2022-10-26T03:10:44.424Z,5.97
2022-10-26T03:13:12.189Z,5.83
2022-10-26T03:15:39.027Z,5.63
2022-10-26T03:18:05.914Z,7.10
2022-10-26T03:20:32.605Z,6.37
2022-10-26T03:22:59.241Z,7.00
2022-10-26T03:25:26.242Z,7.03
2022-10-26T03:28:03.400Z,6.67
2022-10-26T03:30:30.788Z,6.87
2022-10-26T03:32:57.662Z,7.10
2022-10-26T03:35:24.470Z,6.70
2022-10-26T03:37:51.301Z,7.67
2022-10-26T03:40:18.185Z,7.67
2022-10-26T03:42:44.807Z,7.50
2022-10-26T03:45:11.450Z,7.70
2022-10-26T03:47:48.592Z,7.57
2022-10-26T03:50:17.898Z,7.17
2022-10-26T03:52:45.073Z,7.30
2022-10-26T03:55:11.675Z,7.57
2022-10-26T03:57:45.647Z,7.00
2022-10-26T04:00:17.564Z,7.67
2022-10-26T04:02:48.623Z,7.50
2022-10-26T04:05:16.682Z,8.03
2022-10-26T04:07:43.858Z,8.30
2022-10-26T04:10:10.778Z,8.10
2022-10-26T04:12:40.357Z,8.10
2022-10-26T04:15:07.776Z,7.73
2022-10-26T04:17:34.558Z,7.77
2022-10-26T04:20:01.221Z,8.70
2022-10-26T04:22:27.815Z,7.70
2022-10-26T04:24:54.361Z,8.10
2022-10-26T04:27:21.071Z,8.00
2022-10-26T04:29:47.639Z,7.90
2022-10-26T04:32:14.192Z,9.40
2022-10-26T04:34:40.761Z,8.50
2022-10-26T04:37:07.332Z,7.67
2022-10-26T04:39:33.982Z,8.47
2022-10-26T04:42:00.613Z,8.37
2022-10-26T04:44:27.140Z,8.60
2022-10-26T04:46:53.730Z,9.53
2022-10-26T04:49:20.391Z,8.90
2022-10-26T04:51:46.945Z,8.70
2022-10-26T04:54:13.762Z,9.17
2022-10-26T04:56:40.443Z,8.93
2022-10-26T04:59:07.110Z,9.50
2022-10-26T05:01:33.937Z,8.77
2022-10-26T05:04:00.582Z,8.30
2022-10-26T05:06:27.161Z,8.87
2022-10-26T05:08:53.777Z,9.27
2022-10-26T05:11:20.329Z,8.63
2022-10-26T05:13:48.046Z,9.13
2022-10-26T05:16:16.247Z,9.30
2022-10-26T05:18:42.802Z,8.97
2022-10-26T05:21:09.427Z,8.43
2022-10-26T05:23:35.960Z,8.97
2022-10-26T05:26:04.966Z,8.80
2022-10-26T05:28:31.535Z,8.70
2022-10-26T05:30:58.812Z,8.47
2022-10-26T05:33:25.517Z,8.13
2022-10-26T05:35:54.672Z,7.50
2022-10-26T05:38:21.238Z,8.17
2022-10-26T05:40:51.480Z,7.80
2022-10-26T05:43:18.624Z,8.13
2022-10-26T05:45:45.465Z,8.70
2022-10-26T05:48:14.087Z,8.17
2022-10-26T05:50:40.757Z,8.43
2022-10-26T05:53:07.350Z,8.57
2022-10-26T05:55:34.621Z,7.30
2022-10-26T05:58:01.554Z,7.43
2022-10-26T06:00:29.349Z,7.90
2022-10-26T06:03:05.091Z,7.67
2022-10-26T06:05:37.432Z,7.37
2022-10-26T06:08:08.592Z,6.93
2022-10-26T06:10:35.346Z,7.67
2022-10-26T06:13:02.232Z,7.60
2022-10-26T06:15:31.191Z,7.80
2022-10-26T06:18:09.368Z,6.60
2022-10-26T06:20:45.160Z,7.17
2022-10-26T06:23:24.911Z,7.47
2022-10-26T06:26:09.574Z,7.10
2022-10-26T06:28:58.102Z,6.90
2022-10-26T06:31:24.647Z,6.77
2022-10-26T06:33:54.051Z,6.53
2022-10-26T06:36:26.974Z,6.73
2022-10-26T06:39:03.824Z,7.10
2022-10-26T06:41:32.689Z,6.67
2022-10-26T06:43:59.576Z,6.50
2022-10-26T06:46:32.799Z,7.90
2022-10-26T06:49:19.356Z,6.17
2022-10-26T06:51:49.699Z,6.57
2022-10-26T06:54:23.578Z,6.60
2022-10-26T06:56:51.840Z,6.37
2022-10-26T06:59:54.625Z,6.20
2022-10-26T07:02:21.599Z,5.60
2022-10-26T07:04:48.420Z,6.23
2022-10-26T07:07:18.508Z,6.47
2022-10-26T07:09:45.127Z,6.30
2022-10-26T07:12:11.810Z,5.60
2022-10-26T07:14:38.559Z,6.10
2022-10-26T07:17:05.866Z,7.83
2022-10-26T07:19:32.602Z,6.57
2022-10-26T07:22:00.188Z,5.53
2022-10-26T07:24:27.892Z,6.30
2022-10-26T07:26:55.773Z,5.50
2022-10-26T07:29:23.698Z,5.17
2022-10-26T07:31:50.598Z,5.93
2022-10-26T07:34:17.311Z,5.83
2022-10-26T07:36:43.956Z,4.93
2022-10-26T07:39:10.788Z,5.50
2022-10-26T07:41:37.430Z,5.50
2022-10-26T07:44:04.044Z,5.00
2022-10-26T07:46:30.644Z,5.07
2022-10-26T07:48:57.244Z,5.63
2022-10-26T07:51:23.834Z,5.10
2022-10-26T07:53:50.405Z,5.43
2022-10-26T07:56:17.040Z,5.27
2022-10-26T07:58:43.634Z,4.53
2022-10-26T08:01:12.544Z,4.40
2022-10-26T08:03:39.651Z,4.17
2022-10-26T08:06:07.570Z,4.23
2022-10-26T08:08:36.789Z,4.60
2022-10-26T08:11:03.620Z,3.90
2022-10-26T08:13:30.402Z,3.40
2022-10-26T08:15:58.378Z,3.90
2022-10-26T08:18:26.189Z,4.30
2022-10-26T08:20:56.369Z,3.90
2022-10-26T08:23:28.561Z,4.00
2022-10-26T08:26:02.520Z,4.33
2022-10-26T08:28:29.675Z,3.93
2022-10-26T08:30:56.966Z,3.67
2022-10-26T08:33:24.329Z,3.67
2022-10-26T08:35:59.593Z,3.50
2022-10-26T08:38:26.304Z,3.60
2022-10-26T08:40:53.318Z,3.77
2022-10-26T08:43:26.888Z,3.80
2022-10-26T08:46:05.696Z,3.43
2022-10-26T08:48:56.309Z,3.90
2022-10-26T08:51:26.804Z,3.27
2022-10-26T08:54:05.654Z,3.37
2022-10-26T08:56:50.084Z,3.70
2022-10-26T08:59:35.673Z,4.00
2022-10-26T09:02:02.820Z,3.20
2022-10-26T09:04:31.567Z,3.67
2022-10-26T09:07:06.216Z,4.17
2022-10-26T09:10:13.662Z,3.30
2022-10-26T09:13:25.090Z,2.87
2022-10-26T09:16:20.418Z,3.47
2022-10-26T09:18:55.821Z,3.37
2022-10-26T09:21:29.580Z,3.07
2022-10-26T09:24:35.358Z,3.50
2022-10-26T09:27:35.734Z,3.20
2022-10-26T09:30:14.660Z,3.13
2022-10-26T09:32:47.417Z,3.30
2022-10-26T09:35:46.161Z,3.00
2022-10-26T09:38:49.998Z,3.60
2022-10-26T09:41:27.143Z,2.97
2022-10-26T09:44:02.912Z,3.00
2022-10-26T09:46:47.039Z,2.93
2022-10-26T09:49:15.433Z,2.77
2022-10-26T09:51:43.750Z,3.63
2022-10-26T09:54:18.824Z,3.23
2022-10-26T09:56:55.915Z,2.97
2022-10-26T09:59:23.516Z,2.90
2022-10-26T10:01:50.438Z,3.07
2022-10-26T10:04:20.362Z,3.23
2022-10-26T10:06:48.964Z,2.80
2022-10-26T10:09:17.742Z,3.20
2022-10-26T10:11:55.381Z,3.03
2022-10-26T10:14:39.903Z,2.73
2022-10-26T10:17:09.734Z,3.03
2022-10-26T10:19:37.745Z,3.27
2022-10-26T10:22:16.163Z,3.30
2022-10-26T10:24:43.897Z,3.00
2022-10-26T10:27:15.510Z,2.97
2022-10-26T10:29:46.563Z,3.33
2022-10-26T10:32:27.851Z,3.17
2022-10-26T10:34:56.081Z,3.00
2022-10-26T10:37:31.319Z,2.80
2022-10-26T10:40:07.692Z,2.97
2022-10-26T10:42:37.348Z,2.73
2022-10-26T10:45:04.594Z,2.70
2022-10-26T10:47:35.969Z,2.83
2022-10-26T10:50:04.386Z,2.50
2022-10-26T10:52:33.083Z,3.20
2022-10-26T10:55:14.952Z,2.63
2022-10-26T10:58:01.759Z,2.50
2022-10-26T11:00:28.390Z,3.10
2022-10-26T11:03:25.045Z,3.10
2022-10-26T11:06:01.578Z,2.80
2022-10-26T11:08:43.612Z,2.60
2022-10-26T11:11:27.303Z,2.90
2022-10-26T11:13:58.667Z,3.30
2022-10-26T11:16:34.916Z,2.90
2022-10-26T11:19:12.709Z,3.00
2022-10-26T11:21:39.251Z,2.67
2022-10-26T11:24:16.359Z,2.87
2022-10-26T11:26:49.039Z,2.47
2022-10-26T11:29:24.685Z,2.60
2022-10-26T11:31:54.632Z,2.73
2022-10-26T11:34:40.978Z,2.97
2022-10-26T11:37:19.709Z,2.63
2022-10-26T11:39:58.112Z,2.47
2022-10-26T11:42:30.292Z,3.00
2022-10-26T11:45:03.186Z,2.77
2022-10-26T11:47:39.668Z,2.83
2022-10-26T11:50:20.303Z,2.70
2022-10-26T11:52:49.783Z,2.40
2022-10-26T11:55:17.243Z,2.50
2022-10-26T11:57:46.551Z,2.83
2022-10-26T12:00:13.047Z,3.03
2022-10-26T12:05:15.257Z,2.60
2022-10-26T12:07:45.898Z,2.97
2022-10-26T12:10:23.879Z,2.20
2022-10-26T12:12:53.569Z,2.43
2022-10-26T12:15:40.309Z,2.53
2022-10-26T12:18:54.052Z,2.93
2022-10-26T12:21:20.298Z,2.43
2022-10-26T12:23:58.914Z,2.40
2022-10-26T12:26:28.525Z,2.53
2022-10-26T12:29:04.413Z,2.57
2022-10-26T12:31:37.329Z,2.30
2022-10-26T12:34:05.856Z,2.20
2022-10-26T12:36:57.259Z,2.50
2022-10-26T12:39:30.878Z,2.27
2022-10-26T12:42:06.473Z,2.30
2022-10-26T12:44:48.329Z,2.33
2022-10-26T12:47:30.277Z,2.27
2022-10-26T12:50:05.810Z,2.00
2022-10-26T12:52:43.907Z,2.27
2022-10-26T12:55:18.161Z,2.20
2022-10-26T12:57:54.376Z,2.10
2022-10-26T13:00:26.176Z,2.20
2022-10-26T13:03:11.106Z,2.27
2022-10-26T13:06:17.213Z,2.30
2022-10-26T13:09:00.113Z,2.20
2022-10-26T13:11:42.746Z,2.30
2022-10-26T13:14:21.882Z,2.20
2022-10-26T13:16:48.787Z,2.03
2022-10-26T13:19:39.738Z,2.07
2022-10-26T13:22:06.395Z,2.50
2022-10-26T13:24:34.781Z,3.50
2022-10-26T13:27:08.061Z,2.70
2022-10-26T13:30:03.492Z,3.90
2022-10-26T13:32:31.339Z,3.30
2022-10-26T13:35:00.132Z,2.63
2022-10-26T13:37:28.275Z,2.37
2022-10-26T13:39:56.010Z,2.50
2022-10-26T13:42:44.502Z,2.40
2022-10-26T13:45:15.228Z,2.60
2022-10-26T13:48:01.692Z,2.67
2022-10-26T13:50:33.493Z,2.90
2022-10-26T13:53:06.280Z,2.70
2022-10-26T13:55:38.035Z,2.53
2022-10-26T13:58:29.400Z,2.47
2022-10-26T14:01:14.158Z,2.77
2022-10-26T14:03:41.619Z,2.80
2022-10-26T14:06:37.317Z,2.80
2022-10-26T14:09:12.528Z,2.50
2022-10-26T14:11:55.612Z,3.10
2022-10-26T14:14:32.536Z,2.40
2022-10-26T14:16:59.533Z,2.50
2022-10-26T14:19:30.572Z,3.07
2022-10-26T14:22:01.170Z,2.67
2022-10-26T14:24:46.787Z,2.90
2022-10-26T14:27:18.644Z,2.87
2022-10-26T14:29:49.865Z,2.37
2022-10-26T14:32:33.505Z,2.80
2022-10-26T14:35:00.144Z,2.47
2022-10-26T14:37:41.358Z,2.80
2022-10-26T14:40:17.807Z,2.50
2022-10-26T14:42:49.998Z,2.50
2022-10-26T14:45:47.730Z,2.77
2022-10-26T14:48:24.106Z,3.00
2022-10-26T14:51:04.182Z,2.43
2022-10-26T14:53:34.900Z,2.33
2022-10-26T14:56:01.900Z,2.80
2022-10-26T14:58:30.630Z,2.40
2022-10-26T15:01:22.269Z,2.70
2022-10-26T15:03:58.180Z,2.80
2022-10-26T15:06:27.721Z,2.87
2022-10-26T15:08:59.427Z,2.63
2022-10-26T15:11:27.286Z,2.50
2022-10-26T15:13:54.743Z,2.90
2022-10-26T15:16:24.322Z,2.43
2022-10-26T15:18:56.243Z,2.37
2022-10-26T15:21:37.348Z,2.83
2022-10-26T15:24:31.017Z,2.97
2022-10-26T15:27:00.834Z,2.60
2022-10-26T15:29:47.358Z,2.90
2022-10-26T15:32:33.204Z,2.50
2022-10-26T15:35:18.175Z,2.70
2022-10-26T15:37:46.010Z,2.53
2022-10-26T15:40:13.222Z,2.83
2022-10-26T15:42:41.539Z,2.80
2022-10-26T15:45:26.156Z,2.93
2022-10-26T15:47:53.877Z,3.20
2022-10-26T15:50:22.703Z,3.30
2022-10-26T15:52:49.768Z,3.20
2022-10-26T15:55:17.531Z,3.20
2022-10-26T15:57:44.169Z,2.67
2022-10-26T16:00:15.665Z,3.40
2022-10-26T16:02:44.157Z,3.73
2022-10-26T16:05:16.082Z,4.00
2022-10-26T16:07:44.179Z,3.90
2022-10-26T16:10:19.661Z,3.50
2022-10-26T16:12:46.481Z,3.90
2022-10-26T16:15:21.526Z,3.40
2022-10-26T16:17:48.913Z,4.00
2022-10-26T16:20:24.780Z,3.70
2022-10-26T16:22:52.748Z,3.90
2022-10-26T16:25:22.575Z,4.10
2022-10-26T16:27:49.661Z,4.10
2022-10-26T16:30:16.760Z,3.60
2022-10-26T16:32:43.726Z,3.90
2022-10-26T16:35:11.791Z,3.53
2022-10-26T16:37:38.426Z,3.50
2022-10-26T16:40:05.996Z,3.73
2022-10-26T16:42:33.148Z,4.17
2022-10-26T16:45:02.628Z,3.70
2022-10-26T16:47:30.747Z,4.87
2022-10-26T16:49:57.399Z,4.60
2022-10-26T16:52:24.065Z,3.90
2022-10-26T16:54:50.689Z,4.00
2022-10-26T16:57:17.310Z,4.53
2022-10-26T16:59:44.006Z,3.80
2022-10-26T17:02:13.718Z,4.50
2022-10-26T17:04:40.477Z,4.20
2022-10-26T17:07:07.036Z,4.40
2022-10-26T17:09:33.623Z,4.10
2022-10-26T17:12:02.060Z,5.20
2022-10-26T17:14:29.037Z,5.40
2022-10-26T17:16:55.627Z,5.50
2022-10-26T17:19:22.199Z,5.00
2022-10-26T17:21:48.818Z,4.77
2022-10-26T17:24:15.487Z,5.20
2022-10-26T17:26:42.444Z,4.20
2022-10-26T17:31:37.247Z,4.20
2022-10-26T17:34:03.886Z,4.40
2022-10-26T17:36:31.678Z,4.60
2022-10-26T17:38:58.561Z,4.70
2022-10-26T17:41:25.360Z,4.67
2022-10-26T17:43:51.934Z,4.97
2022-10-26T17:46:24.331Z,5.27
2022-10-26T17:48:59.151Z,5.10
2022-10-26T17:51:27.597Z,4.70
2022-10-26T17:53:54.985Z,4.50
2022-10-26T17:56:27.700Z,4.90
2022-10-26T17:58:57.625Z,4.70
2022-10-26T18:01:25.078Z,4.40
2022-10-26T18:03:52.243Z,4.90
2022-10-26T18:06:19.100Z,5.10
2022-10-26T18:08:46.119Z,5.27
2022-10-26T18:11:15.099Z,5.40
2022-10-26T18:13:41.773Z,5.17
2022-10-26T18:16:09.532Z,4.73
2022-10-26T18:18:36.301Z,4.90
2022-10-26T18:21:08.110Z,5.00
2022-10-26T18:23:34.907Z,4.90
2022-10-26T18:26:11.135Z,5.23
2022-10-26T18:28:40.191Z,4.80
2022-10-26T18:31:09.013Z,4.67
2022-10-26T18:33:35.854Z,5.30
2022-10-26T18:36:10.446Z,5.00
2022-10-26T18:38:37.739Z,5.30
2022-10-26T18:41:04.469Z,4.87
2022-10-26T18:43:31.010Z,5.47
2022-10-26T18:46:09.807Z,5.13
2022-10-26T18:48:36.838Z,5.13
2022-10-26T18:51:11.873Z,5.43
2022-10-26T18:53:40.203Z,5.17
2022-10-26T18:56:09.795Z,5.97
2022-10-26T18:58:38.459Z,5.97
2022-10-26T19:01:26.410Z,5.50
2022-10-26T19:04:01.427Z,6.00
2022-10-26T19:06:33.437Z,5.63
2022-10-26T19:09:00.517Z,5.37
2022-10-26T19:11:28.917Z,5.23
2022-10-26T19:13:56.159Z,5.57
2022-10-26T19:19:16.344Z,5.30
2022-10-26T19:21:43.621Z,5.93
2022-10-26T19:24:18.991Z,5.57
2022-10-26T19:26:46.256Z,5.20
2022-10-26T19:29:15.520Z,5.40
2022-10-26T19:31:43.578Z,5.30
2022-10-26T19:34:10.960Z,4.97
2022-10-26T19:36:38.122Z,4.90
2022-10-26T19:39:04.799Z,4.80
2022-10-26T19:41:31.413Z,5.80
2022-10-26T19:46:28.115Z,5.70
2022-10-26T19:48:56.806Z,6.03
2022-10-26T19:51:24.695Z,5.80
2022-10-26T19:53:52.071Z,5.40
2022-10-26T19:56:20.494Z,5.43
2022-10-26T19:58:48.146Z,5.37
2022-10-26T20:01:15.559Z,4.93
2022-10-26T20:03:42.647Z,4.83
2022-10-26T20:06:12.891Z,4.63
2022-10-26T20:08:41.487Z,4.60
2022-10-26T20:11:11.675Z,5.50
2022-10-26T20:13:41.418Z,5.10
2022-10-26T20:16:08.832Z,5.50
2022-10-26T20:18:35.444Z,5.80
2022-10-26T20:21:02.086Z,5.43
2022-10-26T20:23:28.740Z,6.27
2022-10-26T20:25:55.838Z,4.80
2022-10-26T20:28:22.806Z,5.40
2022-10-26T20:30:49.896Z,5.43
2022-10-26T20:33:16.749Z,5.00
2022-10-26T20:35:43.434Z,5.70
2022-10-26T20:38:18.701Z,5.10
2022-10-26T20:40:53.340Z,5.73
2022-10-26T20:43:21.408Z,5.07
2022-10-26T20:45:48.703Z,5.60
2022-10-26T20:48:15.742Z,5.67
2022-10-26T20:50:47.229Z,5.27
2022-10-26T20:53:27.693Z,5.67
2022-10-26T20:55:58.244Z,5.27
2022-10-26T20:58:41.295Z,5.90
2022-10-26T21:01:25.671Z,5.80
2022-10-26T21:03:53.525Z,5.37
2022-10-26T21:06:20.311Z,5.37
2022-10-26T21:08:49.655Z,5.20
2022-10-26T21:11:17.469Z,5.10
2022-10-26T21:13:44.753Z,5.57
2022-10-26T21:16:11.481Z,6.30
2022-10-26T21:18:38.074Z,8.43
2022-10-26T21:21:04.879Z,11.60
2022-10-26T21:23:36.278Z,7.00
2022-10-26T21:26:03.325Z,5.90
2022-10-26T21:28:45.936Z,6.07
2022-10-26T21:31:14.318Z,5.40
2022-10-26T21:33:41.397Z,5.03
2022-10-26T21:36:13.965Z,5.00
2022-10-26T21:38:42.296Z,5.20
2022-10-26T21:41:17.491Z,5.30
2022-10-26T21:43:46.267Z,5.13
2022-10-26T21:46:13.508Z,5.20
2022-10-26T21:48:41.119Z,5.20
2022-10-26T21:51:15.549Z,5.40
2022-10-26T21:53:42.182Z,5.30
2022-10-26T21:56:11.969Z,5.30
2022-10-26T21:58:38.992Z,5.27
2022-10-26T22:01:16.322Z,5.40
2022-10-26T22:03:43.736Z,5.60
2022-10-26T22:06:12.398Z,4.57
2022-10-26T22:08:39.052Z,4.70
2022-10-26T22:11:17.373Z,4.63
2022-10-26T22:13:44.683Z,4.67
2022-10-26T22:16:23.402Z,5.10
2022-10-26T22:18:51.858Z,4.50
2022-10-26T22:21:19.328Z,4.80
2022-10-26T22:23:46.603Z,4.70
2022-10-26T22:26:15.814Z,4.87
2022-10-26T22:28:43.936Z,4.33
2022-10-26T22:31:16.652Z,4.77
2022-10-26T22:33:43.819Z,4.30
2022-10-26T22:36:12.471Z,3.43
2022-10-26T22:38:39.198Z,4.60
2022-10-26T22:41:06.215Z,4.33
2022-10-26T22:43:32.886Z,4.87
2022-10-26T22:46:05.673Z,4.60
2022-10-26T22:48:32.983Z,4.30
2022-10-26T22:51:00.020Z,4.70
2022-10-26T22:53:26.578Z,4.60
2022-10-26T22:55:53.144Z,4.50
2022-10-26T22:58:20.851Z,4.70
2022-10-26T23:00:47.499Z,4.83
2022-10-26T23:03:14.093Z,5.00
2022-10-26T23:05:47.731Z,4.80
2022-10-26T23:08:14.444Z,4.23
2022-10-26T23:10:41.117Z,4.27
2022-10-26T23:13:07.754Z,5.00
2022-10-26T23:15:34.418Z,4.47
2022-10-26T23:18:01.048Z,4.40
2022-10-26T23:20:27.732Z,4.53
2022-10-26T23:22:54.430Z,5.03
2022-10-26T23:25:21.026Z,4.70
2022-10-26T23:27:47.662Z,4.47
2022-10-26T23:30:16.697Z,4.07
2022-10-26T23:32:43.307Z,4.90
2022-10-26T23:35:10.166Z,4.73
2022-10-26T23:37:36.778Z,4.27
2022-10-26T23:40:03.687Z,4.87
2022-10-26T23:42:30.280Z,4.60
2022-10-26T23:44:56.901Z,4.13
2022-10-26T23:47:23.514Z,4.53
2022-10-26T23:49:51.355Z,4.50
2022-10-26T23:52:17.927Z,5.10
2022-10-26T23:54:44.567Z,4.80
2022-10-26T23:57:11.153Z,4.90
2022-10-26T23:59:37.760Z,4.43
